sensor_id;sensor_type;location;lat;lon;timestamp;temperature;humidity
15359;DHT22;7779;49.596;11.070;2023-01-01T00:01:14;12.70;72.30
15359;DHT22;7779;49.596;11.070;2023-01-01T00:03:40;12.70;72.90
15359;DHT22;7779;49.596;11.070;2023-01-01T00:06:08;12.60;72.80
15359;DHT22;7779;49.596;11.070;2023-01-01T00:08:35;12.60;73.00
15359;DHT22;7779;49.596;11.070;2023-01-01T00:11:02;12.50;73.00
15359;DHT22;7779;49.596;11.070;2023-01-01T00:13:30;12.40;73.10
15359;DHT22;7779;49.596;11.070;2023-01-01T00:15:56;12.40;73.10
15359;DHT22;7779;49.596;11.070;2023-01-01T00:18:28;12.40;73.20
15359;DHT22;7779;49.596;11.070;2023-01-01T00:21:01;12.30;73.10
15359;DHT22;7779;49.596;11.070;2023-01-01T00:23:31;12.30;73.20
15359;DHT22;7779;49.596;11.070;2023-01-01T00:25:58;12.20;73.10
15359;DHT22;7779;49.596;11.070;2023-01-01T00:28:23;12.20;73.20
15359;DHT22;7779;49.596;11.070;2023-01-01T00:30:49;12.10;73.20
15359;DHT22;7779;49.596;11.070;2023-01-01T00:33:15;12.10;73.20
15359;DHT22;7779;49.596;11.070;2023-01-01T00:35:41;12.00;73.30
15359;DHT22;7779;49.596;11.070;2023-01-01T00:38:06;12.00;73.30
15359;DHT22;7779;49.596;11.070;2023-01-01T00:40:33;11.90;73.20
15359;DHT22;7779;49.596;11.070;2023-01-01T00:42:58;11.90;73.30
15359;DHT22;7779;49.596;11.070;2023-01-01T00:45:24;11.80;73.20
15359;DHT22;7779;49.596;11.070;2023-01-01T00:47:51;11.80;73.40
15359;DHT22;7779;49.596;11.070;2023-01-01T00:50:18;11.70;73.50
15359;DHT22;7779;49.596;11.070;2023-01-01T00:52:48;11.60;73.50
15359;DHT22;7779;49.596;11.070;2023-01-01T00:55:14;11.60;73.60
15359;DHT22;7779;49.596;11.070;2023-01-01T00:57:40;11.60;73.70
15359;DHT22;7779;49.596;11.070;2023-01-01T01:00:07;11.50;73.60
15359;DHT22;7779;49.596;11.070;2023-01-01T01:02:33;11.50;73.70
15359;DHT22;7779;49.596;11.070;2023-01-01T01:04:59;11.50;73.70
15359;DHT22;7779;49.596;11.070;2023-01-01T01:07:25;11.40;73.70
15359;DHT22;7779;49.596;11.070;2023-01-01T01:09:51;11.40;73.70
15359;DHT22;7779;49.596;11.070;2023-01-01T01:12:17;11.30;73.60
15359;DHT22;7779;49.596;11.070;2023-01-01T01:14:42;11.30;73.60
15359;DHT22;7779;49.596;11.070;2023-01-01T01:17:08;11.20;73.60
15359;DHT22;7779;49.596;11.070;2023-01-01T01:19:34;11.20;73.60
15359;DHT22;7779;49.596;11.070;2023-01-01T01:21:59;11.20;73.70
15359;DHT22;7779;49.596;11.070;2023-01-01T01:24:25;11.10;73.70
15359;DHT22;7779;49.596;11.070;2023-01-01T01:26:52;11.00;73.70
15359;DHT22;7779;49.596;11.070;2023-01-01T01:29:17;11.00;73.80
15359;DHT22;7779;49.596;11.070;2023-01-01T01:31:43;10.90;74.00
15359;DHT22;7779;49.596;11.070;2023-01-01T01:34:09;10.90;74.20
15359;DHT22;7779;49.596;11.070;2023-01-01T01:36:35;10.90;74.40
15359;DHT22;7779;49.596;11.070;2023-01-01T01:39:00;10.80;74.40
15359;DHT22;7779;49.596;11.070;2023-01-01T01:41:26;10.90;74.60
15359;DHT22;7779;49.596;11.070;2023-01-01T01:43:58;10.80;74.50
15359;DHT22;7779;49.596;11.070;2023-01-01T01:49:04;10.80;74.70
15359;DHT22;7779;49.596;11.070;2023-01-01T01:51:41;10.70;74.50
15359;DHT22;7779;49.596;11.070;2023-01-01T01:54:12;10.70;74.50
15359;DHT22;7779;49.596;11.070;2023-01-01T01:59:18;10.70;74.60
15359;DHT22;7779;49.596;11.070;2023-01-01T02:01:46;10.70;74.60
15359;DHT22;7779;49.596;11.070;2023-01-01T02:04:12;10.60;74.60
15359;DHT22;7779;49.596;11.070;2023-01-01T02:06:39;10.60;74.60
15359;DHT22;7779;49.596;11.070;2023-01-01T02:09:06;10.60;74.70
15359;DHT22;7779;49.596;11.070;2023-01-01T02:11:33;10.60;74.80
15359;DHT22;7779;49.596;11.070;2023-01-01T02:14:00;10.50;74.70
15359;DHT22;7779;49.596;11.070;2023-01-01T02:16:50;10.50;74.80
15359;DHT22;7779;49.596;11.070;2023-01-01T02:19:43;10.50;74.70
15359;DHT22;7779;49.596;11.070;2023-01-01T02:22:56;10.50;75.40
15359;DHT22;7779;49.596;11.070;2023-01-01T02:26:06;10.40;75.30
15359;DHT22;7779;49.596;11.070;2023-01-01T02:28:57;10.40;75.40
15359;DHT22;7779;49.596;11.070;2023-01-01T02:31:30;10.40;75.30
15359;DHT22;7779;49.596;11.070;2023-01-01T02:34:03;10.30;74.90
15359;DHT22;7779;49.596;11.070;2023-01-01T02:36:32;10.30;75.00
15359;DHT22;7779;49.596;11.070;2023-01-01T02:39:04;10.30;75.00
15359;DHT22;7779;49.596;11.070;2023-01-01T02:41:42;10.30;75.10
15359;DHT22;7779;49.596;11.070;2023-01-01T02:44:11;10.30;75.20
15359;DHT22;7779;49.596;11.070;2023-01-01T02:46:37;10.20;74.90
15359;DHT22;7779;49.596;11.070;2023-01-01T02:49:03;10.20;74.90
15359;DHT22;7779;49.596;11.070;2023-01-01T02:51:41;10.20;74.90
15359;DHT22;7779;49.596;11.070;2023-01-01T02:57:25;10.10;75.10
15359;DHT22;7779;49.596;11.070;2023-01-01T03:00:06;10.10;75.10
15359;DHT22;7779;49.596;11.070;2023-01-01T03:07:04;10.10;75.40
15359;DHT22;7779;49.596;11.070;2023-01-01T03:12:38;10.00;75.30
15359;DHT22;7779;49.596;11.070;2023-01-01T03:15:23;10.00;75.40
15359;DHT22;7779;49.596;11.070;2023-01-01T03:18:04;10.00;75.30
15359;DHT22;7779;49.596;11.070;2023-01-01T03:20:37;10.00;75.30
15359;DHT22;7779;49.596;11.070;2023-01-01T03:23:09;10.00;75.10
15359;DHT22;7779;49.596;11.070;2023-01-01T03:25:43;9.90;75.90
15359;DHT22;7779;49.596;11.070;2023-01-01T03:28:17;9.90;75.80
15359;DHT22;7779;49.596;11.070;2023-01-01T03:30:55;9.90;75.70
15359;DHT22;7779;49.596;11.070;2023-01-01T03:33:29;9.80;75.60
15359;DHT22;7779;49.596;11.070;2023-01-01T03:36:07;9.80;75.60
15359;DHT22;7779;49.596;11.070;2023-01-01T03:38:44;9.70;75.60
15359;DHT22;7779;49.596;11.070;2023-01-01T03:41:22;9.70;75.70
15359;DHT22;7779;49.596;11.070;2023-01-01T03:44:17;9.70;76.20
15359;DHT22;7779;49.596;11.070;2023-01-01T03:46:50;9.60;76.50
15359;DHT22;7779;49.596;11.070;2023-01-01T03:49:16;9.60;76.40
15359;DHT22;7779;49.596;11.070;2023-01-01T03:54:47;9.60;76.60
15359;DHT22;7779;49.596;11.070;2023-01-01T03:57:55;9.60;77.20
15359;DHT22;7779;49.596;11.070;2023-01-01T04:00:34;9.60;77.40
15359;DHT22;7779;49.596;11.070;2023-01-01T04:03:07;9.60;76.70
15359;DHT22;7779;49.596;11.070;2023-01-01T04:05:41;9.60;76.50
15359;DHT22;7779;49.596;11.070;2023-01-01T04:08:08;9.50;76.30
15359;DHT22;7779;49.596;11.070;2023-01-01T04:10:40;9.50;76.20
15359;DHT22;7779;49.596;11.070;2023-01-01T04:13:09;9.50;76.30
15359;DHT22;7779;49.596;11.070;2023-01-01T04:15:35;9.50;76.20
15359;DHT22;7779;49.596;11.070;2023-01-01T04:18:01;9.40;76.10
15359;DHT22;7779;49.596;11.070;2023-01-01T04:20:27;9.40;76.20
15359;DHT22;7779;49.596;11.070;2023-01-01T04:22:58;9.40;76.20
15359;DHT22;7779;49.596;11.070;2023-01-01T04:25:24;9.40;76.30
15359;DHT22;7779;49.596;11.070;2023-01-01T04:27:51;9.30;76.30
15359;DHT22;7779;49.596;11.070;2023-01-01T04:30:18;9.30;76.40
15359;DHT22;7779;49.596;11.070;2023-01-01T04:32:43;9.30;76.70
15359;DHT22;7779;49.596;11.070;2023-01-01T04:35:13;9.30;76.80
15359;DHT22;7779;49.596;11.070;2023-01-01T04:37:41;9.30;77.00
15359;DHT22;7779;49.596;11.070;2023-01-01T04:40:10;9.20;76.80
15359;DHT22;7779;49.596;11.070;2023-01-01T04:42:37;9.30;77.00
15359;DHT22;7779;49.596;11.070;2023-01-01T04:45:03;9.20;77.10
15359;DHT22;7779;49.596;11.070;2023-01-01T04:47:29;9.20;77.10
15359;DHT22;7779;49.596;11.070;2023-01-01T04:49:55;9.20;77.20
15359;DHT22;7779;49.596;11.070;2023-01-01T04:52:21;9.20;77.10
15359;DHT22;7779;49.596;11.070;2023-01-01T04:54:46;9.30;77.10
15359;DHT22;7779;49.596;11.070;2023-01-01T04:57:12;9.20;76.90
15359;DHT22;7779;49.596;11.070;2023-01-01T04:59:38;9.20;76.90
15359;DHT22;7779;49.596;11.070;2023-01-01T05:02:05;9.20;76.90
15359;DHT22;7779;49.596;11.070;2023-01-01T05:04:31;9.20;76.90
15359;DHT22;7779;49.596;11.070;2023-01-01T05:06:57;9.20;77.30
15359;DHT22;7779;49.596;11.070;2023-01-01T05:09:22;9.20;76.90
15359;DHT22;7779;49.596;11.070;2023-01-01T05:11:48;9.20;76.90
15359;DHT22;7779;49.596;11.070;2023-01-01T05:14:14;9.10;76.70
15359;DHT22;7779;49.596;11.070;2023-01-01T05:16:39;9.10;76.70
15359;DHT22;7779;49.596;11.070;2023-01-01T05:19:06;9.10;76.70
15359;DHT22;7779;49.596;11.070;2023-01-01T05:21:36;9.10;76.80
15359;DHT22;7779;49.596;11.070;2023-01-01T05:24:08;9.00;76.90
15359;DHT22;7779;49.596;11.070;2023-01-01T05:26:37;9.00;77.10
15359;DHT22;7779;49.596;11.070;2023-01-01T05:29:05;9.00;77.10
15359;DHT22;7779;49.596;11.070;2023-01-01T05:31:33;9.00;77.10
15359;DHT22;7779;49.596;11.070;2023-01-01T05:34:00;9.00;77.10
15359;DHT22;7779;49.596;11.070;2023-01-01T05:36:29;9.00;77.10
15359;DHT22;7779;49.596;11.070;2023-01-01T05:38:58;9.00;76.90
15359;DHT22;7779;49.596;11.070;2023-01-01T05:41:24;9.00;76.70
15359;DHT22;7779;49.596;11.070;2023-01-01T05:43:52;8.90;76.50
15359;DHT22;7779;49.596;11.070;2023-01-01T05:46:22;8.90;76.40
15359;DHT22;7779;49.596;11.070;2023-01-01T05:48:50;8.90;76.50
15359;DHT22;7779;49.596;11.070;2023-01-01T05:51:19;8.90;76.40
15359;DHT22;7779;49.596;11.070;2023-01-01T05:53:50;8.80;76.20
15359;DHT22;7779;49.596;11.070;2023-01-01T05:56:16;8.80;76.10
15359;DHT22;7779;49.596;11.070;2023-01-01T05:58:42;8.70;75.90
15359;DHT22;7779;49.596;11.070;2023-01-01T06:01:12;8.70;76.10
15359;DHT22;7779;49.596;11.070;2023-01-01T06:03:40;8.60;75.90
15359;DHT22;7779;49.596;11.070;2023-01-01T06:06:13;8.60;76.00
15359;DHT22;7779;49.596;11.070;2023-01-01T06:08:40;8.60;76.00
15359;DHT22;7779;49.596;11.070;2023-01-01T06:11:09;8.50;76.00
15359;DHT22;7779;49.596;11.070;2023-01-01T06:13:36;8.40;75.90
15359;DHT22;7779;49.596;11.070;2023-01-01T06:16:03;8.40;76.00
15359;DHT22;7779;49.596;11.070;2023-01-01T06:18:31;8.40;76.20
15359;DHT22;7779;49.596;11.070;2023-01-01T06:21:16;8.30;76.90
15359;DHT22;7779;49.596;11.070;2023-01-01T06:23:43;8.30;77.40
15359;DHT22;7779;49.596;11.070;2023-01-01T06:26:11;8.30;77.00
15359;DHT22;7779;49.596;11.070;2023-01-01T06:28:45;8.30;77.30
15359;DHT22;7779;49.596;11.070;2023-01-01T06:31:14;8.30;77.40
15359;DHT22;7779;49.596;11.070;2023-01-01T06:33:42;8.30;77.50
15359;DHT22;7779;49.596;11.070;2023-01-01T06:36:11;8.30;77.50
15359;DHT22;7779;49.596;11.070;2023-01-01T06:38:41;8.30;77.70
15359;DHT22;7779;49.596;11.070;2023-01-01T06:41:21;8.30;77.60
15359;DHT22;7779;49.596;11.070;2023-01-01T06:43:49;8.30;77.80
15359;DHT22;7779;49.596;11.070;2023-01-01T06:48:49;8.30;77.30
15359;DHT22;7779;49.596;11.070;2023-01-01T06:51:21;8.30;77.30
15359;DHT22;7779;49.596;11.070;2023-01-01T06:53:59;8.30;77.50
15359;DHT22;7779;49.596;11.070;2023-01-01T06:56:26;8.20;77.60
15359;DHT22;7779;49.596;11.070;2023-01-01T06:58:53;8.20;77.70
15359;DHT22;7779;49.596;11.070;2023-01-01T07:01:21;8.30;78.10
15359;DHT22;7779;49.596;11.070;2023-01-01T07:04:00;8.30;78.30
15359;DHT22;7779;49.596;11.070;2023-01-01T07:06:28;8.30;78.80
15359;DHT22;7779;49.596;11.070;2023-01-01T07:08:55;8.30;78.40
15359;DHT22;7779;49.596;11.070;2023-01-01T07:11:21;8.40;78.40
15359;DHT22;7779;49.596;11.070;2023-01-01T07:13:47;8.40;78.40
15359;DHT22;7779;49.596;11.070;2023-01-01T07:16:14;8.40;78.30
15359;DHT22;7779;49.596;11.070;2023-01-01T07:18:40;8.40;78.20
15359;DHT22;7779;49.596;11.070;2023-01-01T07:23:53;8.50;78.70
15359;DHT22;7779;49.596;11.070;2023-01-01T07:26:24;8.50;78.20
15359;DHT22;7779;49.596;11.070;2023-01-01T07:28:52;8.50;78.20
15359;DHT22;7779;49.596;11.070;2023-01-01T07:31:18;8.60;78.40
15359;DHT22;7779;49.596;11.070;2023-01-01T07:33:43;8.50;78.40
15359;DHT22;7779;49.596;11.070;2023-01-01T07:36:09;8.60;78.60
15359;DHT22;7779;49.596;11.070;2023-01-01T07:38:35;8.60;78.60
15359;DHT22;7779;49.596;11.070;2023-01-01T07:41:00;8.60;78.80
15359;DHT22;7779;49.596;11.070;2023-01-01T07:43:26;8.70;79.00
15359;DHT22;7779;49.596;11.070;2023-01-01T07:45:52;8.70;79.10
15359;DHT22;7779;49.596;11.070;2023-01-01T07:48:18;8.80;79.40
15359;DHT22;7779;49.596;11.070;2023-01-01T07:50:43;8.80;80.20
15359;DHT22;7779;49.596;11.070;2023-01-01T07:53:10;8.90;79.90
15359;DHT22;7779;49.596;11.070;2023-01-01T07:55:36;8.90;80.00
15359;DHT22;7779;49.596;11.070;2023-01-01T07:58:02;9.00;80.10
15359;DHT22;7779;49.596;11.070;2023-01-01T08:00:28;9.10;80.10
15359;DHT22;7779;49.596;11.070;2023-01-01T08:02:54;9.20;80.20
15359;DHT22;7779;49.596;11.070;2023-01-01T08:05:20;9.30;80.30
15359;DHT22;7779;49.596;11.070;2023-01-01T08:07:49;9.30;80.30
15359;DHT22;7779;49.596;11.070;2023-01-01T08:10:17;9.40;80.50
15359;DHT22;7779;49.596;11.070;2023-01-01T08:12:46;9.50;80.40
15359;DHT22;7779;49.596;11.070;2023-01-01T08:15:13;9.60;80.70
15359;DHT22;7779;49.596;11.070;2023-01-01T08:17:39;9.70;80.80
15359;DHT22;7779;49.596;11.070;2023-01-01T08:20:06;9.80;80.90
15359;DHT22;7779;49.596;11.070;2023-01-01T08:22:32;9.90;80.90
15359;DHT22;7779;49.596;11.070;2023-01-01T08:24:58;10.00;79.90
15359;DHT22;7779;49.596;11.070;2023-01-01T08:27:24;10.10;79.90
15359;DHT22;7779;49.596;11.070;2023-01-01T08:29:49;10.20;79.90
15359;DHT22;7779;49.596;11.070;2023-01-01T08:32:15;10.30;79.90
15359;DHT22;7779;49.596;11.070;2023-01-01T08:34:41;10.40;79.90
15359;DHT22;7779;49.596;11.070;2023-01-01T08:37:12;10.50;79.90
15359;DHT22;7779;49.596;11.070;2023-01-01T08:39:38;10.60;80.00
15359;DHT22;7779;49.596;11.070;2023-01-01T08:42:04;10.70;80.00
15359;DHT22;7779;49.596;11.070;2023-01-01T08:44:30;10.80;80.10
15359;DHT22;7779;49.596;11.070;2023-01-01T08:46:56;10.90;80.00
15359;DHT22;7779;49.596;11.070;2023-01-01T08:49:21;11.00;80.00
15359;DHT22;7779;49.596;11.070;2023-01-01T08:51:47;11.10;79.90
15359;DHT22;7779;49.596;11.070;2023-01-01T08:54:12;11.20;79.80
15359;DHT22;7779;49.596;11.070;2023-01-01T08:56:38;11.30;79.60
15359;DHT22;7779;49.596;11.070;2023-01-01T08:59:04;11.40;79.50
15359;DHT22;7779;49.596;11.070;2023-01-01T09:01:30;11.40;79.30
15359;DHT22;7779;49.596;11.070;2023-01-01T09:03:55;11.60;79.30
15359;DHT22;7779;49.596;11.070;2023-01-01T09:06:21;11.60;79.10
15359;DHT22;7779;49.596;11.070;2023-01-01T09:08:47;11.70;78.90
15359;DHT22;7779;49.596;11.070;2023-01-01T09:11:22;11.80;77.80
15359;DHT22;7779;49.596;11.070;2023-01-01T09:13:51;11.80;78.30
15359;DHT22;7779;49.596;11.070;2023-01-01T09:16:18;11.90;78.30
15359;DHT22;7779;49.596;11.070;2023-01-01T09:18:44;11.90;78.10
15359;DHT22;7779;49.596;11.070;2023-01-01T09:21:10;12.00;78.00
15359;DHT22;7779;49.596;11.070;2023-01-01T09:23:36;12.00;77.80
15359;DHT22;7779;49.596;11.070;2023-01-01T09:26:03;12.10;77.70
15359;DHT22;7779;49.596;11.070;2023-01-01T09:28:30;12.10;77.70
15359;DHT22;7779;49.596;11.070;2023-01-01T09:30:56;12.10;77.60
15359;DHT22;7779;49.596;11.070;2023-01-01T09:33:22;12.20;77.80
15359;DHT22;7779;49.596;11.070;2023-01-01T09:35:48;12.20;77.70
15359;DHT22;7779;49.596;11.070;2023-01-01T09:38:13;12.20;77.70
15359;DHT22;7779;49.596;11.070;2023-01-01T09:40:54;12.30;77.80
15359;DHT22;7779;49.596;11.070;2023-01-01T09:46:09;12.40;77.80
15359;DHT22;7779;49.596;11.070;2023-01-01T09:48:45;12.50;78.30
15359;DHT22;7779;49.596;11.070;2023-01-01T09:51:19;12.60;78.20
15359;DHT22;7779;49.596;11.070;2023-01-01T09:53:53;12.70;78.50
15359;DHT22;7779;49.596;11.070;2023-01-01T09:56:26;12.80;78.50
15359;DHT22;7779;49.596;11.070;2023-01-01T09:58:56;12.90;78.70
15359;DHT22;7779;49.596;11.070;2023-01-01T10:01:53;13.00;78.60
15359;DHT22;7779;49.596;11.070;2023-01-01T10:13:38;13.40;77.50
15359;DHT22;7779;49.596;11.070;2023-01-01T10:16:33;13.50;77.10
15359;DHT22;7779;49.596;11.070;2023-01-01T10:22:14;13.60;76.10
15359;DHT22;7779;49.596;11.070;2023-01-01T10:27:38;13.70;76.60
15359;DHT22;7779;49.596;11.070;2023-01-01T10:30:27;13.80;76.20
15359;DHT22;7779;49.596;11.070;2023-01-01T10:32:55;13.90;76.50
15359;DHT22;7779;49.596;11.070;2023-01-01T10:35:25;13.90;76.20
15359;DHT22;7779;49.596;11.070;2023-01-01T10:37:58;14.00;76.00
15359;DHT22;7779;49.596;11.070;2023-01-01T10:40:26;14.00;75.80
15359;DHT22;7779;49.596;11.070;2023-01-01T10:42:58;14.00;75.60
15359;DHT22;7779;49.596;11.070;2023-01-01T10:45:48;14.10;75.40
15359;DHT22;7779;49.596;11.070;2023-01-01T10:48:22;14.10;74.50
15359;DHT22;7779;49.596;11.070;2023-01-01T10:53:40;14.20;75.60
15359;DHT22;7779;49.596;11.070;2023-01-01T10:58:44;14.30;75.30
15359;DHT22;7779;49.596;11.070;2023-01-01T11:04:00;14.50;75.00
15359;DHT22;7779;49.596;11.070;2023-01-01T11:06:34;14.50;74.20
15359;DHT22;7779;49.596;11.070;2023-01-01T11:09:04;14.60;75.30
15359;DHT22;7779;49.596;11.070;2023-01-01T11:11:37;14.60;75.00
15359;DHT22;7779;49.596;11.070;2023-01-01T11:14:21;14.70;74.70
15359;DHT22;7779;49.596;11.070;2023-01-01T11:16:52;14.80;73.80
15359;DHT22;7779;49.596;11.070;2023-01-01T11:19:39;14.80;74.40
15359;DHT22;7779;49.596;11.070;2023-01-01T11:22:09;14.80;72.70
15359;DHT22;7779;49.596;11.070;2023-01-01T11:25:26;14.80;73.90
15359;DHT22;7779;49.596;11.070;2023-01-01T11:30:41;14.90;72.40
15359;DHT22;7779;49.596;11.070;2023-01-01T11:33:25;14.90;73.60
15359;DHT22;7779;49.596;11.070;2023-01-01T11:35:54;15.00;73.50
15359;DHT22;7779;49.596;11.070;2023-01-01T11:38:21;15.00;73.30
15359;DHT22;7779;49.596;11.070;2023-01-01T11:40:51;15.00;73.20
15359;DHT22;7779;49.596;11.070;2023-01-01T11:43:26;15.00;72.90
15359;DHT22;7779;49.596;11.070;2023-01-01T11:45:54;15.00;72.40
15359;DHT22;7779;49.596;11.070;2023-01-01T11:48:30;15.10;73.00
15359;DHT22;7779;49.596;11.070;2023-01-01T11:51:01;15.10;72.20
15359;DHT22;7779;49.596;11.070;2023-01-01T11:53:30;15.10;72.60
15359;DHT22;7779;49.596;11.070;2023-01-01T11:56:14;15.10;72.60
15359;DHT22;7779;49.596;11.070;2023-01-01T12:01:28;15.20;72.20
15359;DHT22;7779;49.596;11.070;2023-01-01T12:04:14;15.20;72.40
15359;DHT22;7779;49.596;11.070;2023-01-01T12:10:07;15.20;72.20
15359;DHT22;7779;49.596;11.070;2023-01-01T12:12:46;15.20;70.90
15359;DHT22;7779;49.596;11.070;2023-01-01T12:18:15;15.20;72.10
15359;DHT22;7779;49.596;11.070;2023-01-01T12:20:56;15.30;71.10
15359;DHT22;7779;49.596;11.070;2023-01-01T12:23:29;15.30;71.50
15359;DHT22;7779;49.596;11.070;2023-01-01T12:26:13;15.30;72.00
15359;DHT22;7779;49.596;11.070;2023-01-01T12:29:03;15.40;70.80
15359;DHT22;7779;49.596;11.070;2023-01-01T12:31:50;15.40;71.20
15359;DHT22;7779;49.596;11.070;2023-01-01T12:43:10;15.50;70.90
15359;DHT22;7779;49.596;11.070;2023-01-01T12:46:07;15.50;71.10
15359;DHT22;7779;49.596;11.070;2023-01-01T12:52:04;15.60;70.70
15359;DHT22;7779;49.596;11.070;2023-01-01T12:55:03;15.60;70.30
15359;DHT22;7779;49.596;11.070;2023-01-01T12:58:01;15.70;70.90
15359;DHT22;7779;49.596;11.070;2023-01-01T13:00:36;15.80;70.50
15359;DHT22;7779;49.596;11.070;2023-01-01T13:03:14;15.80;71.80
15359;DHT22;7779;49.596;11.070;2023-01-01T13:05:47;15.90;70.90
15359;DHT22;7779;49.596;11.070;2023-01-01T13:08:15;15.90;71.40
15359;DHT22;7779;49.596;11.070;2023-01-01T13:10:43;14.40;69.90
15359;DHT22;7779;49.596;11.070;2023-01-01T13:13:14;16.00;71.30
15359;DHT22;7779;49.596;11.070;2023-01-01T13:20:43;16.10;70.40
15359;DHT22;7779;49.596;11.070;2023-01-01T13:29:15;16.10;69.00
15359;DHT22;7779;49.596;11.070;2023-01-01T13:40:31;16.20;69.50
15359;DHT22;7779;49.596;11.070;2023-01-01T13:45:25;16.20;70.00
15359;DHT22;7779;49.596;11.070;2023-01-01T13:57:08;16.30;69.30
15359;DHT22;7779;49.596;11.070;2023-01-01T14:00:03;16.40;69.40
15359;DHT22;7779;49.596;11.070;2023-01-01T14:02:53;16.40;68.00
15359;DHT22;7779;49.596;11.070;2023-01-01T14:05:36;16.40;67.90
15359;DHT22;7779;49.596;11.070;2023-01-01T14:08:27;16.40;67.90
15359;DHT22;7779;49.596;11.070;2023-01-01T14:11:01;16.40;67.20
15359;DHT22;7779;49.596;11.070;2023-01-01T14:13:41;16.40;68.50
15359;DHT22;7779;49.596;11.070;2023-01-01T14:16:08;16.40;68.30
15359;DHT22;7779;49.596;11.070;2023-01-01T14:18:58;16.40;68.10
15359;DHT22;7779;49.596;11.070;2023-01-01T14:21:29;16.40;66.80
15359;DHT22;7779;49.596;11.070;2023-01-01T14:24:02;16.40;67.90
15359;DHT22;7779;49.596;11.070;2023-01-01T14:26:32;16.30;67.40
15359;DHT22;7779;49.596;11.070;2023-01-01T14:29:06;16.30;67.80
15359;DHT22;7779;49.596;11.070;2023-01-01T14:31:39;16.30;67.70
15359;DHT22;7779;49.596;11.070;2023-01-01T14:36:55;16.30;67.00
15359;DHT22;7779;49.596;11.070;2023-01-01T14:39:27;16.20;67.80
15359;DHT22;7779;49.596;11.070;2023-01-01T14:42:00;16.20;67.60
15359;DHT22;7779;49.596;11.070;2023-01-01T14:44:37;16.20;67.80
15359;DHT22;7779;49.596;11.070;2023-01-01T14:47:26;16.20;67.10
15359;DHT22;7779;49.596;11.070;2023-01-01T14:52:34;16.20;67.40
15359;DHT22;7779;49.596;11.070;2023-01-01T14:55:01;16.20;67.70
15359;DHT22;7779;49.596;11.070;2023-01-01T14:57:31;16.10;67.60
15359;DHT22;7779;49.596;11.070;2023-01-01T14:59:58;16.10;67.60
15359;DHT22;7779;49.596;11.070;2023-01-01T15:02:26;16.00;67.60
15359;DHT22;7779;49.596;11.070;2023-01-01T15:04:55;16.00;67.60
15359;DHT22;7779;49.596;11.070;2023-01-01T15:07:28;16.00;67.60
15359;DHT22;7779;49.596;11.070;2023-01-01T15:09:57;16.00;67.30
15359;DHT22;7779;49.596;11.070;2023-01-01T15:12:28;16.00;67.60
15359;DHT22;7779;49.596;11.070;2023-01-01T15:14:58;15.90;67.40
15359;DHT22;7779;49.596;11.070;2023-01-01T15:17:25;15.90;67.40
15359;DHT22;7779;49.596;11.070;2023-01-01T15:20:19;15.90;67.40
15359;DHT22;7779;49.596;11.070;2023-01-01T15:22:48;15.90;66.50
15359;DHT22;7779;49.596;11.070;2023-01-01T15:25:17;15.80;67.10
15359;DHT22;7779;49.596;11.070;2023-01-01T15:27:48;15.80;67.00
15359;DHT22;7779;49.596;11.070;2023-01-01T15:30:24;15.80;66.80
15359;DHT22;7779;49.596;11.070;2023-01-01T15:32:53;15.70;66.60
15359;DHT22;7779;49.596;11.070;2023-01-01T15:35:30;15.70;67.00
15359;DHT22;7779;49.596;11.070;2023-01-01T15:38:09;15.60;67.20
15359;DHT22;7779;49.596;11.070;2023-01-01T15:40:41;15.50;66.50
15359;DHT22;7779;49.596;11.070;2023-01-01T15:43:37;15.50;66.80
15359;DHT22;7779;49.596;11.070;2023-01-01T15:46:20;15.40;65.90
15359;DHT22;7779;49.596;11.070;2023-01-01T15:48:51;15.30;66.20
15359;DHT22;7779;49.596;11.070;2023-01-01T15:51:22;15.20;65.60
15359;DHT22;7779;49.596;11.070;2023-01-01T15:53:56;15.20;66.90
15359;DHT22;7779;49.596;11.070;2023-01-01T15:56:29;15.10;67.10
15359;DHT22;7779;49.596;11.070;2023-01-01T15:59:03;15.10;67.20
15359;DHT22;7779;49.596;11.070;2023-01-01T16:01:33;15.00;65.80
15359;DHT22;7779;49.596;11.070;2023-01-01T16:04:13;15.00;67.30
15359;DHT22;7779;49.596;11.070;2023-01-01T16:06:45;15.00;67.20
15359;DHT22;7779;49.596;11.070;2023-01-01T16:09:14;14.90;67.40
15359;DHT22;7779;49.596;11.070;2023-01-01T16:11:41;14.90;67.40
15359;DHT22;7779;49.596;11.070;2023-01-01T16:14:08;14.90;67.50
15359;DHT22;7779;49.596;11.070;2023-01-01T16:16:35;14.80;67.50
15359;DHT22;7779;49.596;11.070;2023-01-01T16:19:04;14.80;67.50
15359;DHT22;7779;49.596;11.070;2023-01-01T16:21:34;14.80;67.60
15359;DHT22;7779;49.596;11.070;2023-01-01T16:24:00;14.80;67.60
15359;DHT22;7779;49.596;11.070;2023-01-01T16:26:26;14.70;67.60
15359;DHT22;7779;49.596;11.070;2023-01-01T16:28:52;14.70;67.70
15359;DHT22;7779;49.596;11.070;2023-01-01T16:31:25;14.70;67.70
15359;DHT22;7779;49.596;11.070;2023-01-01T16:33:56;14.60;67.50
15359;DHT22;7779;49.596;11.070;2023-01-01T16:36:23;14.60;67.70
15359;DHT22;7779;49.596;11.070;2023-01-01T16:38:52;14.50;67.70
15359;DHT22;7779;49.596;11.070;2023-01-01T16:41:18;14.50;67.80
15359;DHT22;7779;49.596;11.070;2023-01-01T16:43:44;14.50;67.80
15359;DHT22;7779;49.596;11.070;2023-01-01T16:46:11;14.50;67.90
15359;DHT22;7779;49.596;11.070;2023-01-01T16:48:37;14.50;68.00
15359;DHT22;7779;49.596;11.070;2023-01-01T16:51:04;14.40;67.90
15359;DHT22;7779;49.596;11.070;2023-01-01T16:53:31;14.40;68.00
15359;DHT22;7779;49.596;11.070;2023-01-01T16:55:57;14.30;68.00
15359;DHT22;7779;49.596;11.070;2023-01-01T16:58:23;14.30;68.00
15359;DHT22;7779;49.596;11.070;2023-01-01T17:00:49;14.30;68.10
15359;DHT22;7779;49.596;11.070;2023-01-01T17:03:15;14.30;68.10
15359;DHT22;7779;49.596;11.070;2023-01-01T17:05:41;14.20;68.10
15359;DHT22;7779;49.596;11.070;2023-01-01T17:08:07;14.20;68.20
15359;DHT22;7779;49.596;11.070;2023-01-01T17:10:32;14.20;68.30
15359;DHT22;7779;49.596;11.070;2023-01-01T17:12:58;14.20;68.30
15359;DHT22;7779;49.596;11.070;2023-01-01T17:15:30;14.10;68.40
15359;DHT22;7779;49.596;11.070;2023-01-01T17:17:57;14.10;68.40
15359;DHT22;7779;49.596;11.070;2023-01-01T17:20:24;14.10;68.50
15359;DHT22;7779;49.596;11.070;2023-01-01T17:22:50;14.10;68.60
15359;DHT22;7779;49.596;11.070;2023-01-01T17:25:16;14.00;68.60
15359;DHT22;7779;49.596;11.070;2023-01-01T17:27:42;14.00;68.70
15359;DHT22;7779;49.596;11.070;2023-01-01T17:30:10;14.00;68.60
15359;DHT22;7779;49.596;11.070;2023-01-01T17:32:37;14.00;68.60
15359;DHT22;7779;49.596;11.070;2023-01-01T17:35:03;13.90;68.40
15359;DHT22;7779;49.596;11.070;2023-01-01T17:37:30;13.90;68.30
15359;DHT22;7779;49.596;11.070;2023-01-01T17:39:57;13.70;67.50
15359;DHT22;7779;49.596;11.070;2023-01-01T17:42:23;13.70;68.10
15359;DHT22;7779;49.596;11.070;2023-01-01T17:44:49;13.70;68.00
15359;DHT22;7779;49.596;11.070;2023-01-01T17:47:15;13.60;67.90
15359;DHT22;7779;49.596;11.070;2023-01-01T17:49:41;13.50;67.90